This is the latest recevied weather packets stored in our database for station/object EA1BQO-1. If no packets are shown the sender has not sent any weather packets the latest 1 day(s).
| Time | Temp. | Humidity | Pressure | Rain* | Wind** | Luminosity | Snow |
|---|---|---|---|---|---|---|---|
| 1778088543 | 15° C | 42% | 1007.8 hPa | 0 mm | - | - | - |
| 1778087943 | 15.56° C | 41% | 1007.8 hPa | 0 mm | - | - | - |
| 1778087343 | 16.67° C | 38% | 1007.8 hPa | 0 mm | - | - | - |
| 1778086143 | 17.22° C | 33% | 1007.5 hPa | 0 mm | - | - | - |
| 1778083743 | 17.78° C | 26% | 1007.7 hPa | 0 mm | - | - | - |
| 1778083143 | 18.33° C | 26% | 1007.6 hPa | 0 mm | - | - | - |
| 1778082543 | 17.78° C | 29% | 1007.8 hPa | 0 mm | - | - | - |
| 1778081943 | 17.78° C | 28% | 1007.8 hPa | 0 mm | - | - | - |
| 1778081343 | 18.33° C | 25% | 1007.9 hPa | 0 mm | - | - | - |
| 1778080743 | 18.33° C | 25% | 1008.1 hPa | 0 mm | - | - | - |
| 1778080143 | 17.78° C | 26% | 1008 hPa | 0 mm | - | - | - |
| 1778079543 | 17.78° C | 26% | 1008.2 hPa | 0 mm | - | - | - |
| 1778078943 | 17.78° C | 22% | 1008.1 hPa | 0 mm | - | - | - |
| 1778078343 | 18.33° C | 23% | 1008.1 hPa | 0 mm | - | - | - |
| 1778077743 | 18.89° C | 22% | 1008.2 hPa | 0 mm | - | - | - |
| 1778062142 | 13.89° C | 56% | 1010.7 hPa | 0 mm | - | - | - |
| 1778054942 | 10.56° C | 87% | 1011 hPa | 0 mm | - | - | - |
| 1778054342 | 10.56° C | 91% | 1011.2 hPa | 0 mm | - | - | - |
| 1778053742 | 10.56° C | 96% | 1011.2 hPa | 0 mm | - | - | - |
| 1778053142 | 9.44° C | 99% | 1011 hPa | 0 mm | - | - | - |
| 1778052542 | 8.33° C | 99% | 1011 hPa | 0 mm | - | - | - |
| 1778050142 | 6.67° C | 99% | 1011.1 hPa | 0 mm | - | - | - |
| 1778048942 | 5.56° C | 99% | 1011.2 hPa | 0 mm | - | - | - |
| 1778048342 | 5.56° C | 99% | 1011.2 hPa | 0 mm | - | - | - |
| 1778047742 | 4.44° C | 99% | 1011.2 hPa | 0 mm | - | - | - |
* Rain latest hour (hover to see other rain measurements)
** Current wind speed in m/s (hover to see current wind gust speed)